Time;durP1;ratioP1;P1;durP2;ratioP2;P2;SDS_P1;SDS_P2;PMS_P1;PMS_P2;Temp;Humidity;BMP_temperature;BMP_pressure;BME280_temperature;BME280_humidity;BME280_pressure;Samples;Min_cycle;Max_cycle;Signal;HPM_P1;HPM_P2
2021/01/10 00:00:28;;;;;;;14.55;6.90;;;0.30;99.90;;;;;;5121051;27;20031;-66
2021/01/10 00:02:54;;;;;;;13.88;6.85;;;0.30;99.90;;;;;;5107908;28;20040;-66
2021/01/10 00:05:24;;;;;;;11.80;6.13;;;0.20;99.90;;;;;;5105510;28;20115;-65
2021/01/10 00:07:51;;;;;;;11.63;5.47;;;0.20;99.90;;;;;;5120925;28;20043;-65
2021/01/10 00:10:18;;;;;;;12.05;5.45;;;0.20;99.90;;;;;;5120675;27;20046;-67
2021/01/10 00:12:43;;;;;;;13.57;6.43;;;0.10;99.90;;;;;;5105792;27;20047;-65
2021/01/10 00:15:12;;;;;;;12.40;6.35;;;0.10;99.90;;;;;;5113943;27;20039;-65
2021/01/10 00:17:38;;;;;;;12.20;5.78;;;0.10;99.90;;;;;;5128075;27;20468;-66
2021/01/10 00:20:09;;;;;;;16.27;7.03;;;0.10;99.90;;;;;;5127782;27;20483;-67
2021/01/10 00:22:35;;;;;;;10.85;5.50;;;0.10;99.90;;;;;;5099587;27;20126;-65
2021/01/10 00:25:00;;;;;;;13.43;5.22;;;0.00;99.90;;;;;;5101814;28;20551;-65
2021/01/10 00:27:26;;;;;;;6.50;3.45;;;0.10;99.90;;;;;;5102805;28;20035;-66
2021/01/10 00:29:53;;;;;;;6.72;3.22;;;0.10;99.90;;;;;;5106138;28;20141;-67
2021/01/10 00:32:20;;;;;;;6.13;2.40;;;0.10;99.90;;;;;;5106079;28;20034;-66
2021/01/10 00:34:45;;;;;;;5.00;2.30;;;0.10;99.90;;;;;;5101892;28;20047;-66
2021/01/10 00:37:20;;;;;;;3.22;1.40;;;0.20;99.90;;;;;;5089017;28;20035;-67
2021/01/10 00:39:47;;;;;;;2.33;1.25;;;0.20;99.90;;;;;;5087151;28;20075;-67
2021/01/10 00:42:13;;;;;;;3.47;1.52;;;0.20;99.90;;;;;;5086832;28;20562;-66
2021/01/10 00:44:44;;;;;;;4.97;2.42;;;0.20;99.90;;;;;;5097016;27;20045;-65
2021/01/10 00:47:10;;;;;;;4.72;2.17;;;0.20;99.90;;;;;;5108125;27;20078;-66
2021/01/10 00:49:37;;;;;;;6.18;2.38;;;0.20;99.90;;;;;;5105463;28;20499;-65
2021/01/10 00:52:04;;;;;;;3.30;1.80;;;0.10;99.90;;;;;;5090669;28;20081;-66
2021/01/10 00:54:30;;;;;;;5.10;1.85;;;0.10;99.90;;;;;;5087118;28;20036;-66
2021/01/10 00:56:56;;;;;;;6.38;2.40;;;0.10;99.90;;;;;;5087530;28;20052;-66
2021/01/10 00:59:22;;;;;;;6.43;3.10;;;0.10;99.90;;;;;;5099391;28;20070;-65
2021/01/10 01:01:48;;;;;;;8.57;3.22;;;0.10;99.90;;;;;;5088993;28;20040;-67
2021/01/10 01:04:14;;;;;;;7.45;3.33;;;0.10;99.90;;;;;;5087147;28;20111;-65
2021/01/10 01:06:39;;;;;;;5.82;2.30;;;0.10;99.90;;;;;;5093352;28;20161;-65
2021/01/10 01:09:05;;;;;;;5.75;2.38;;;0.20;99.90;;;;;;5097437;28;20115;-65
2021/01/10 01:11:42;;;;;;;5.57;2.45;;;0.10;99.90;;;;;;5101219;28;20504;-66
2021/01/10 01:14:09;;;;;;;;;;;0.10;99.90;;;;;;5103542;27;20092;-65
2021/01/10 01:16:36;;;;;;;4.30;1.98;;;0.00;99.90;;;;;;5122412;27;19927;-65
2021/01/10 01:19:06;;;;;;;2.53;1.10;;;0.00;99.90;;;;;;5102124;27;20511;-65
2021/01/10 01:21:32;;;;;;;3.13;1.40;;;0.00;99.90;;;;;;5094540;28;20039;-65
2021/01/10 01:23:58;;;;;;;5.15;1.73;;;0.00;99.90;;;;;;5085898;28;20101;-66
2021/01/10 01:26:25;;;;;;;3.53;1.63;;;0.10;99.90;;;;;;5091376;28;20069;-65
2021/01/10 01:28:51;;;;;;;5.55;2.17;;;0.10;99.90;;;;;;5103574;28;20066;-65
2021/01/10 01:31:19;;;;;;;6.05;2.67;;;0.10;99.90;;;;;;5104174;28;20039;-66
2021/01/10 01:33:45;;;;;;;7.38;2.67;;;0.00;99.90;;;;;;5104361;28;20445;-66
2021/01/10 01:36:24;;;;;;;6.95;3.45;;;0.10;99.90;;;;;;5103303;28;20545;-64
2021/01/10 01:38:55;;;;;;;10.25;3.70;;;0.10;99.90;;;;;;5086948;28;20036;-61
2021/01/10 01:41:20;;;;;;;8.00;3.85;;;0.10;99.90;;;;;;5087944;28;20073;-57
2021/01/10 01:43:46;;;;;;;8.77;4.20;;;0.10;99.90;;;;;;5107584;27;20039;-60
2021/01/10 01:46:50;;;;;;;8.73;3.47;;;0.00;99.90;;;;;;5103036;27;20093;-60
2021/01/10 01:49:23;;;;;;;8.95;4.18;;;0.00;99.90;;;;;;5089321;28;20054;-59
2021/01/10 01:51:53;;;;;;;6.38;3.72;;;0.10;99.90;;;;;;5105640;28;20036;-59
2021/01/10 01:54:21;;;;;;;6.55;3.28;;;0.10;99.90;;;;;;5096574;28;20040;-57
2021/01/10 01:56:50;;;;;;;7.75;4.30;;;0.10;99.90;;;;;;5106244;28;20124;-60
2021/01/10 01:59:16;;;;;;;7.63;4.10;;;0.10;99.90;;;;;;5099122;28;20032;-60
2021/01/10 02:01:41;;;;;;;8.25;3.83;;;0.00;99.90;;;;;;5097829;28;20047;-61
2021/01/10 02:04:30;;;;;;;7.88;3.85;;;0.00;99.90;;;;;;5104974;28;20035;-62
2021/01/10 02:07:20;;;;;;;8.88;4.32;;;-0.10;99.90;;;;;;5105489;28;20407;-60
2021/01/10 02:10:05;;;;;;;8.52;4.22;;;0.00;99.90;;;;;;5091604;28;20036;-58
2021/01/10 02:12:35;;;;;;;9.95;5.18;;;0.00;99.90;;;;;;5097736;28;20459;-61
2021/01/10 02:15:09;;;;;;;8.52;3.83;;;0.00;99.90;;;;;;5103836;27;20050;-60
2021/01/10 02:17:35;;;;;;;7.82;3.92;;;0.00;99.90;;;;;;5101418;28;20046;-59
2021/01/10 02:20:12;;;;;;;8.93;4.63;;;0.00;99.90;;;;;;5098870;28;20032;-61
2021/01/10 02:22:50;;;;;;;7.72;4.32;;;0.00;99.90;;;;;;5089489;28;20044;-61
2021/01/10 02:25:17;;;;;;;11.95;4.80;;;0.00;99.90;;;;;;5084414;28;20040;-59
2021/01/10 02:27:44;;;;;;;8.05;4.68;;;0.00;99.90;;;;;;5091411;28;20558;-61
2021/01/10 02:30:14;;;;;;;9.18;5.20;;;0.10;99.90;;;;;;5098970;28;20035;-58
2021/01/10 02:32:44;;;;;;;10.15;4.78;;;0.10;99.90;;;;;;5102416;28;20043;-57
2021/01/10 02:35:10;;;;;;;12.40;5.80;;;0.10;99.90;;;;;;5091706;28;20089;-60
2021/01/10 02:37:43;;;;;;;11.07;6.15;;;0.10;99.90;;;;;;5088509;28;20861;-61
2021/01/10 02:40:30;;;;;;;12.15;5.65;;;0.00;99.90;;;;;;5085045;28;20079;-61
2021/01/10 02:43:01;;;;;;;11.30;5.70;;;-0.10;99.90;;;;;;5090344;28;20078;-60
2021/01/10 02:45:30;;;;;;;10.95;5.38;;;-0.10;99.90;;;;;;5110058;27;20133;-60
2021/01/10 02:48:01;;;;;;;12.40;5.90;;;-0.10;99.90;;;;;;5104649;28;20071;-61
2021/01/10 02:50:29;;;;;;;11.40;5.82;;;-0.10;99.90;;;;;;5099083;28;20486;-58
2021/01/10 02:52:55;;;;;;;10.55;5.53;;;0.00;99.90;;;;;;5092648;28;20044;-61
2021/01/10 02:55:31;;;;;;;11.95;5.72;;;-0.10;99.90;;;;;;5084151;28;20051;-60
2021/01/10 02:57:58;;;;;;;;;;;-0.10;99.90;;;;;;5095701;28;20047;-61
2021/01/10 03:00:26;;;;;;;11.80;5.85;;;-0.10;99.90;;;;;;5086304;28;19939;-58
2021/01/10 03:02:57;;;;;;;13.50;6.78;;;-0.10;99.90;;;;;;5066948;28;20048;-61
2021/01/10 03:05:26;;;;;;;10.70;6.25;;;0.00;99.90;;;;;;5085066;28;20044;-61
2021/01/10 03:07:56;;;;;;;11.27;5.65;;;0.00;99.90;;;;;;5073179;28;20520;-61
2021/01/10 03:10:23;;;;;;;8.23;4.80;;;0.00;99.90;;;;;;5070281;28;20520;-60
2021/01/10 03:12:54;;;;;;;12.38;6.15;;;0.10;99.90;;;;;;5081379;28;20747;-61
2021/01/10 03:15:23;;;;;;;12.77;6.63;;;0.10;99.90;;;;;;5069433;28;20396;-61
2021/01/10 03:17:50;;;;;;;10.65;6.07;;;0.10;99.90;;;;;;5103913;28;20048;-61
2021/01/10 03:20:21;;;;;;;10.77;6.00;;;0.00;99.90;;;;;;5104190;28;20801;-60
2021/01/10 03:22:50;;;;;;;11.82;6.05;;;0.00;99.90;;;;;;5097363;28;20105;-60
2021/01/10 03:25:19;;;;;;;11.65;6.38;;;0.00;99.90;;;;;;5101434;28;20042;-61
2021/01/10 03:27:44;;;;;;;12.77;6.32;;;0.00;99.90;;;;;;5087406;28;20540;-60
2021/01/10 03:30:18;;;;;;;11.95;6.18;;;0.00;99.90;;;;;;5088209;28;20047;-59
2021/01/10 03:32:52;;;;;;;13.65;6.55;;;0.00;99.90;;;;;;5102518;28;20039;-61
2021/01/10 03:35:18;;;;;;;14.18;6.97;;;0.00;99.90;;;;;;5099972;28;20504;-61
2021/01/10 03:37:50;;;;;;;11.98;6.25;;;0.00;99.90;;;;;;5100674;28;20074;-59
2021/01/10 03:40:16;;;;;;;11.90;6.30;;;0.00;99.90;;;;;;5105194;28;20043;-61
2021/01/10 03:42:42;;;;;;;12.18;6.40;;;0.10;99.90;;;;;;5104814;28;20039;-61
2021/01/10 03:45:09;;;;;;;12.27;6.47;;;0.10;99.90;;;;;;5100908;28;20407;-61
2021/01/10 03:47:35;;;;;;;11.77;6.28;;;0.10;99.90;;;;;;5104221;28;20092;-61
2021/01/10 03:50:01;;;;;;;15.45;6.93;;;0.10;99.90;;;;;;5102263;28;20028;-61
2021/01/10 03:52:29;;;;;;;11.00;5.93;;;0.10;99.90;;;;;;5103444;28;20128;-61
2021/01/10 03:54:55;;;;;;;12.73;6.28;;;0.10;99.90;;;;;;5088675;28;20058;-61
2021/01/10 03:57:28;;;;;;;12.65;5.85;;;0.10;99.90;;;;;;5096084;28;20415;-65
2021/01/10 03:59:54;;;;;;;15.10;7.10;;;0.10;99.90;;;;;;5096313;28;20530;-62
2021/01/10 04:02:19;;;;;;;11.30;5.82;;;0.10;99.90;;;;;;5107893;27;20043;-62
2021/01/10 04:04:45;;;;;;;11.05;5.65;;;0.10;99.90;;;;;;5088543;28;20596;-62
2021/01/10 04:07:11;;;;;;;12.35;6.47;;;0.10;99.90;;;;;;5087006;28;20894;-62
2021/01/10 04:09:41;;;;;;;12.73;5.85;;;0.10;99.90;;;;;;5092012;28;20078;-61
2021/01/10 04:12:07;;;;;;;8.80;5.30;;;0.20;99.90;;;;;;5105086;27;20040;-63
2021/01/10 04:14:38;;;;;;;10.18;5.65;;;0.20;99.90;;;;;;5106016;27;20403;-64
2021/01/10 04:17:04;;;;;;;11.27;6.20;;;0.20;99.90;;;;;;5098475;27;20565;-65
2021/01/10 04:19:29;;;;;;;13.88;7.32;;;0.20;99.90;;;;;;5095418;28;20032;-62
2021/01/10 04:21:57;;;;;;;15.25;6.70;;;0.20;99.90;;;;;;5087385;28;20785;-60
2021/01/10 04:24:29;;;;;;;10.18;5.72;;;0.20;99.90;;;;;;5095730;28;20068;-60
2021/01/10 04:26:55;;;;;;;11.25;6.05;;;0.20;99.90;;;;;;5088643;28;20052;-61
2021/01/10 04:29:23;;;;;;;13.93;6.70;;;0.20;99.90;;;;;;5098498;28;20043;-62
2021/01/10 04:31:49;;;;;;;10.35;5.18;;;0.20;99.90;;;;;;5086970;28;20032;-60
2021/01/10 04:34:16;;;;;;;12.93;5.85;;;0.20;99.90;;;;;;5077190;28;20527;-62
2021/01/10 04:36:45;;;;;;;11.73;6.28;;;0.30;99.90;;;;;;5080268;28;20583;-63
2021/01/10 04:39:14;;;;;;;12.77;6.47;;;0.30;99.90;;;;;;5085444;28;20160;-66
2021/01/10 04:41:42;;;;;;;13.20;6.25;;;0.30;99.90;;;;;;5072018;28;20625;-63
2021/01/10 04:44:08;;;;;;;12.50;6.45;;;0.30;99.90;;;;;;5080090;28;20075;-65
2021/01/10 04:46:34;;;;;;;16.38;7.03;;;0.30;99.90;;;;;;5073192;28;20064;-65
2021/01/10 04:49:00;;;;;;;11.18;6.20;;;0.30;99.90;;;;;;5069527;28;20043;-65
2021/01/10 04:51:27;;;;;;;14.65;7.15;;;0.30;99.90;;;;;;5075606;28;20038;-65
2021/01/10 04:53:56;;;;;;;16.13;6.35;;;0.30;99.90;;;;;;5066884;28;20123;-63
2021/01/10 04:56:29;;;;;;;12.48;6.75;;;0.30;99.90;;;;;;5073130;28;20037;-64
2021/01/10 04:59:00;;;;;;;13.60;6.30;;;0.30;99.90;;;;;;5075117;28;20076;-64
2021/01/10 05:01:52;;;;;;;17.55;7.88;;;0.30;99.90;;;;;;5067559;28;20037;-64
2021/01/10 05:04:20;;;;;;;13.98;6.93;;;0.30;99.90;;;;;;5084822;28;20085;-67
2021/01/10 05:06:54;;;;;;;14.88;7.53;;;0.30;99.90;;;;;;5080695;28;20614;-64
2021/01/10 05:09:22;;;;;;;17.35;8.25;;;0.30;99.90;;;;;;5070236;28;20037;-65
2021/01/10 05:11:47;;;;;;;16.63;8.43;;;0.30;99.90;;;;;;5077063;28;20041;-64
2021/01/10 05:14:13;;;;;;;15.65;8.10;;;0.30;99.90;;;;;;5066390;28;20043;-64
2021/01/10 05:16:42;;;;;;;16.98;8.73;;;0.30;99.90;;;;;;5074303;28;20036;-65
2021/01/10 05:19:10;;;;;;;19.58;9.32;;;0.30;99.90;;;;;;5065653;28;20554;-66
2021/01/10 05:21:42;;;;;;;15.82;8.55;;;0.30;99.90;;;;;;5073529;28;20032;-67
2021/01/10 05:24:08;;;;;;;14.95;8.13;;;0.30;99.90;;;;;;5079904;28;20048;-64
2021/01/10 05:26:40;;;;;;;20.10;9.13;;;0.40;99.90;;;;;;5085311;28;20377;-64
2021/01/10 05:29:10;;;;;;;15.90;8.02;;;0.40;99.90;;;;;;5085392;28;20044;-64
2021/01/10 05:31:43;;;;;;;17.73;8.43;;;0.40;99.90;;;;;;5085451;28;20419;-64
2021/01/10 05:34:19;;;;;;;19.05;8.95;;;0.50;99.90;;;;;;5084802;28;20055;-64
2021/01/10 05:36:46;;;;;;;16.55;7.68;;;0.50;99.90;;;;;;5086272;28;20044;-64
2021/01/10 05:39:30;;;;;;;17.65;8.98;;;0.50;99.90;;;;;;5080262;28;20059;-64
2021/01/10 05:42:05;;;;;;;16.85;8.43;;;0.50;99.90;;;;;;5076572;28;20040;-65
2021/01/10 05:44:48;;;;;;;19.90;8.15;;;0.60;99.90;;;;;;5072483;28;20193;-64
2021/01/10 05:47:20;;;;;;;16.48;7.68;;;0.50;99.90;;;;;;5082217;28;20044;-63
2021/01/10 05:49:50;;;;;;;20.75;9.80;;;0.50;99.90;;;;;;5080492;28;20074;-64
2021/01/10 05:52:20;;;;;;;19.73;9.63;;;0.50;99.90;;;;;;5086969;28;20445;-64
2021/01/10 05:54:52;;;;;;;17.63;9.20;;;0.50;99.90;;;;;;5066657;28;20628;-64
2021/01/10 05:57:28;;;;;;;19.30;8.77;;;0.50;99.90;;;;;;5073870;28;20461;-65
2021/01/10 05:59:54;;;;;;;19.30;9.63;;;0.50;99.90;;;;;;5066245;28;20049;-64
2021/01/10 06:02:28;;;;;;;18.10;9.30;;;0.40;99.90;;;;;;5070504;28;20043;-65
2021/01/10 06:05:13;;;;;;;19.38;9.30;;;0.50;99.90;;;;;;5085892;28;20581;-63
2021/01/10 06:07:43;;;;;;;17.27;8.02;;;0.50;99.90;;;;;;5076401;28;20507;-64
2021/01/10 06:10:13;;;;;;;18.63;9.15;;;0.50;99.90;;;;;;5065200;28;20045;-64
2021/01/10 06:12:42;;;;;;;19.17;9.15;;;0.40;99.90;;;;;;5073415;28;20580;-64
2021/01/10 06:15:15;;;;;;;20.33;9.23;;;0.40;99.90;;;;;;5068267;28;20782;-64
2021/01/10 06:17:43;;;;;;;18.42;8.32;;;0.40;99.90;;;;;;5065730;28;20527;-63
2021/01/10 06:20:29;;;;;;;17.00;8.45;;;0.50;99.90;;;;;;5065696;28;20044;-64
2021/01/10 06:22:58;;;;;;;15.80;7.82;;;0.40;99.90;;;;;;5078460;28;20939;-65
2021/01/10 06:25:25;;;;;;;17.70;8.75;;;0.50;99.90;;;;;;5070820;28;20055;-65
2021/01/10 06:28:12;;;;;;;17.98;8.25;;;0.50;99.90;;;;;;5065145;28;20041;-63
2021/01/10 06:30:44;;;;;;;19.58;9.00;;;0.40;99.90;;;;;;5079835;28;20040;-64
2021/01/10 06:33:16;;;;;;;20.42;9.10;;;0.40;99.90;;;;;;5064766;28;20044;-62
2021/01/10 06:35:53;;;;;;;15.23;7.60;;;0.40;99.90;;;;;;5069433;28;20053;-64
2021/01/10 06:38:23;;;;;;;15.95;7.72;;;0.40;99.90;;;;;;5078854;28;20067;-63
2021/01/10 06:41:16;;;;;;;16.88;7.85;;;0.40;99.90;;;;;;5067435;28;20119;-65
2021/01/10 06:43:48;;;;;;;16.23;8.10;;;0.40;99.90;;;;;;5069789;28;20044;-64
2021/01/10 06:46:14;;;;;;;16.50;8.85;;;0.40;99.90;;;;;;5069620;28;20385;-64
2021/01/10 06:48:42;;;;;;;12.90;6.57;;;0.50;99.90;;;;;;5069011;28;20079;-64
2021/01/10 06:51:15;;;;;;;15.20;7.20;;;0.50;99.90;;;;;;5075487;28;20044;-64
2021/01/10 06:53:41;;;;;;;15.55;7.13;;;0.50;99.90;;;;;;5067915;28;20044;-63
2021/01/10 06:56:09;;;;;;;16.42;8.07;;;0.50;99.90;;;;;;5072649;28;20143;-64
2021/01/10 06:58:35;;;;;;;14.73;7.28;;;0.50;99.90;;;;;;5064087;28;20040;-65
2021/01/10 07:01:07;;;;;;;14.20;7.22;;;0.50;99.90;;;;;;5077763;28;20032;-64
2021/01/10 07:03:32;;;;;;;12.25;6.88;;;0.50;99.90;;;;;;5084589;28;20036;-64
2021/01/10 07:06:06;;;;;;;12.63;7.03;;;0.50;99.90;;;;;;5076562;28;20102;-63
2021/01/10 07:08:43;;;;;;;16.35;7.75;;;0.50;99.90;;;;;;5084268;28;20051;-63
2021/01/10 07:11:23;;;;;;;14.02;7.32;;;0.40;99.90;;;;;;5082416;28;20073;-63
2021/01/10 07:14:12;;;;;;;12.82;6.82;;;0.40;99.90;;;;;;5065008;28;20040;-63
2021/01/10 07:16:45;;;;;;;14.52;6.88;;;0.40;99.90;;;;;;5065339;28;20039;-64
2021/01/10 07:19:18;;;;;;;14.77;7.25;;;0.50;99.90;;;;;;5080662;28;20047;-64
2021/01/10 07:21:49;;;;;;;13.15;7.25;;;0.50;99.90;;;;;;5066299;28;20058;-65
2021/01/10 07:24:21;;;;;;;13.07;6.55;;;0.60;99.90;;;;;;5072069;28;20147;-64
2021/01/10 07:27:03;;;;;;;13.57;6.97;;;0.50;99.90;;;;;;5076678;28;20096;-64
2021/01/10 07:29:34;;;;;;;15.52;7.82;;;0.50;99.90;;;;;;5085068;28;20096;-66
2021/01/10 07:32:05;;;;;;;14.05;6.95;;;0.50;99.90;;;;;;5060151;28;20719;-64
2021/01/10 07:34:52;;;;;;;15.88;7.88;;;0.50;99.90;;;;;;5068920;28;20054;-64
2021/01/10 07:37:26;;;;;;;16.55;8.07;;;0.50;99.90;;;;;;5070719;28;20032;-65
2021/01/10 07:40:00;;;;;;;13.68;6.88;;;0.50;99.90;;;;;;5080957;28;20411;-64
2021/01/10 07:42:28;;;;;;;14.57;7.80;;;0.40;99.90;;;;;;5084441;28;20048;-64
2021/01/10 07:44:56;;;;;;;13.48;7.22;;;0.50;99.90;;;;;;5068488;28;20086;-64
2021/01/10 07:47:34;;;;;;;15.68;7.30;;;0.50;99.90;;;;;;5083212;28;20047;-65
2021/01/10 07:50:13;;;;;;;12.95;7.07;;;0.40;99.90;;;;;;5081335;28;20067;-65
2021/01/10 07:52:42;;;;;;;18.65;8.07;;;0.50;99.90;;;;;;5072102;28;20040;-65
2021/01/10 07:55:22;;;;;;;14.68;6.70;;;0.50;99.90;;;;;;5087743;28;20040;-64
2021/01/10 07:58:15;;;;;;;14.75;7.60;;;0.50;99.90;;;;;;5081709;28;20048;-64
2021/01/10 08:00:47;;;;;;;14.02;7.22;;;0.50;99.90;;;;;;5087919;28;20036;-64
2021/01/10 08:03:39;;;;;;;15.27;7.30;;;0.50;99.90;;;;;;5078989;28;20435;-65
2021/01/10 08:06:10;;;;;;;14.55;7.57;;;0.50;99.90;;;;;;5081753;28;20094;-64
2021/01/10 08:08:46;;;;;;;15.98;7.88;;;0.50;99.90;;;;;;5076093;28;20667;-63
2021/01/10 08:11:30;;;;;;;15.68;7.68;;;0.60;99.90;;;;;;5078441;28;20040;-64
2021/01/10 08:13:58;;;;;;;12.38;7.28;;;0.50;99.90;;;;;;5073878;28;20047;-64
2021/01/10 08:16:30;;;;;;;12.18;6.75;;;0.60;99.90;;;;;;5076809;28;20044;-65
2021/01/10 08:19:04;;;;;;;11.88;6.57;;;0.60;99.90;;;;;;5067966;28;20551;-64
2021/01/10 08:21:54;;;;;;;11.27;6.32;;;0.60;99.90;;;;;;5071341;28;20093;-66
2021/01/10 08:24:22;;;;;;;10.98;6.50;;;0.60;99.90;;;;;;5087816;28;20039;-64
2021/01/10 08:26:48;;;;;;;11.82;6.75;;;0.70;99.90;;;;;;5068459;28;20557;-66
2021/01/10 08:29:21;;;;;;;11.38;6.00;;;0.70;99.90;;;;;;5066672;28;20044;-64
2021/01/10 08:31:50;;;;;;;10.95;6.07;;;0.70;99.90;;;;;;5066898;28;20040;-65
2021/01/10 08:34:16;;;;;;;10.52;6.50;;;0.70;99.90;;;;;;5084009;28;20055;-65
2021/01/10 08:36:45;;;;;;;13.20;6.50;;;0.70;99.90;;;;;;5070436;28;20039;-65
2021/01/10 08:39:23;;;;;;;12.40;6.28;;;0.70;99.90;;;;;;5081320;28;20043;-64
2021/01/10 08:41:49;;;;;;;12.10;6.07;;;0.70;99.90;;;;;;5086791;28;20036;-62
2021/01/10 08:44:25;;;;;;;12.15;6.18;;;0.70;99.90;;;;;;5075771;28;20057;-64
2021/01/10 08:46:52;;;;;;;13.70;7.30;;;0.80;99.90;;;;;;5078977;28;20040;-64
2021/01/10 08:49:28;;;;;;;17.02;6.95;;;0.90;99.90;;;;;;5067138;28;20431;-66
2021/01/10 08:51:53;;;;;;;;;;;0.90;99.90;;;;;;5077974;28;20831;-65
2021/01/10 08:54:23;;;;;;;12.52;6.45;;;1.00;99.90;;;;;;5073477;28;19916;-65
2021/01/10 08:56:55;;;;;;;12.30;6.15;;;1.10;99.90;;;;;;5083480;28;20509;-63
2021/01/10 08:59:20;;;;;;;12.57;7.03;;;1.00;99.90;;;;;;5073244;28;20059;-65
2021/01/10 09:01:50;;;;;;;13.57;7.00;;;1.10;99.90;;;;;;5068591;28;20483;-64
2021/01/10 09:04:16;;;;;;;10.32;5.63;;;1.20;99.90;;;;;;5068583;28;20036;-65
2021/01/10 09:07:04;;;;;;;6.95;4.07;;;1.30;99.90;;;;;;5074141;28;20046;-64
2021/01/10 09:09:35;;;;;;;7.07;3.75;;;1.50;99.90;;;;;;5080517;28;20062;-62
2021/01/10 09:12:41;;;;;;;8.00;3.92;;;1.50;99.90;;;;;;5075811;28;20044;-62
2021/01/10 09:15:16;;;;;;;8.32;3.95;;;1.50;99.90;;;;;;5071275;28;20040;-62
2021/01/10 09:17:47;;;;;;;7.63;3.78;;;1.60;99.90;;;;;;5074020;28;20052;-63
2021/01/10 09:20:17;;;;;;;6.35;3.58;;;1.80;99.90;;;;;;5079862;28;20051;-62
2021/01/10 09:22:43;;;;;;;8.63;4.45;;;1.80;99.90;;;;;;5084656;28;20036;-62
2021/01/10 09:25:16;;;;;;;6.45;3.60;;;1.80;99.90;;;;;;5081979;28;20050;-62
2021/01/10 09:28:08;;;;;;;7.68;4.07;;;1.80;99.90;;;;;;5067149;28;20036;-62
2021/01/10 09:30:35;;;;;;;7.40;3.72;;;1.80;99.90;;;;;;5070718;28;20523;-63
2021/01/10 09:33:04;;;;;;;6.38;4.00;;;1.70;99.90;;;;;;5085296;28;20127;-63
2021/01/10 09:35:40;;;;;;;9.98;3.85;;;1.70;99.90;;;;;;5077031;28;20043;-65
2021/01/10 09:38:15;;;;;;;8.10;4.28;;;1.70;99.90;;;;;;5075150;28;20823;-63
2021/01/10 09:41:09;;;;;;;9.18;4.13;;;1.60;99.90;;;;;;5072122;28;20130;-64
2021/01/10 09:43:37;;;;;;;9.43;4.60;;;1.70;99.90;;;;;;5077684;28;20067;-64
2021/01/10 09:46:04;;;;;;;7.68;4.20;;;1.90;99.90;;;;;;5072886;28;20047;-63
2021/01/10 09:48:31;;;;;;;10.88;6.00;;;2.10;99.90;;;;;;5087006;28;20673;-64
2021/01/10 09:50:57;;;;;;;9.52;5.15;;;2.40;99.90;;;;;;5084744;28;20040;-64
2021/01/10 09:53:26;;;;;;;8.38;4.00;;;2.60;99.90;;;;;;5085540;28;20040;-63
2021/01/10 09:55:51;;;;;;;7.43;3.67;;;2.90;99.90;;;;;;5078796;28;20132;-64
2021/01/10 09:58:17;;;;;;;6.68;3.90;;;3.10;99.90;;;;;;5064930;28;20040;-64
2021/01/10 10:00:56;;;;;;;7.05;4.00;;;2.90;99.90;;;;;;5068739;28;20044;-64
2021/01/10 10:03:23;;;;;;;7.88;4.80;;;2.70;99.90;;;;;;5102614;28;20407;-64
2021/01/10 10:05:58;;;;;;;10.13;4.80;;;2.50;99.90;;;;;;5106516;28;20031;-63
2021/01/10 10:08:24;;;;;;;7.20;4.10;;;2.30;99.90;;;;;;5102457;28;20372;-63
2021/01/10 10:10:50;;;;;;;6.22;3.67;;;2.30;99.90;;;;;;5104223;28;20043;-64
2021/01/10 10:13:24;;;;;;;8.00;3.95;;;2.40;99.90;;;;;;5090018;28;20415;-64
2021/01/10 10:15:53;;;;;;;6.47;3.60;;;2.50;99.90;;;;;;5093420;27;20121;-64
2021/01/10 10:18:22;;;;;;;6.45;3.25;;;2.60;99.90;;;;;;5096732;28;20491;-64
2021/01/10 10:20:48;;;;;;;6.53;3.25;;;2.70;99.90;;;;;;5085775;28;20492;-64
2021/01/10 10:23:15;;;;;;;4.30;2.45;;;2.50;99.90;;;;;;5085367;28;20415;-64
2021/01/10 10:25:42;;;;;;;8.13;3.47;;;2.40;99.90;;;;;;5084840;28;20044;-64
2021/01/10 10:28:09;;;;;;;5.10;2.95;;;2.30;99.90;;;;;;5085848;28;20131;-64
2021/01/10 10:30:36;;;;;;;6.68;3.35;;;2.30;99.90;;;;;;5088400;28;20031;-64
2021/01/10 10:33:03;;;;;;;7.90;3.38;;;2.20;99.90;;;;;;5094677;28;20043;-64
2021/01/10 10:35:30;;;;;;;5.60;3.25;;;2.20;99.90;;;;;;5102667;28;20045;-66
2021/01/10 10:37:56;;;;;;;6.80;3.80;;;2.20;99.90;;;;;;5085096;28;20043;-65
2021/01/10 10:40:21;;;;;;;29.60;16.02;;;2.20;99.90;;;;;;5092552;28;20127;-62
2021/01/10 10:42:48;;;;;;;9.80;5.38;;;2.40;99.90;;;;;;5094295;28;20645;-63
2021/01/10 10:45:15;;;;;;;8.77;4.13;;;2.40;99.90;;;;;;5100711;27;20035;-66
2021/01/10 10:47:40;;;;;;;9.23;3.97;;;2.50;99.90;;;;;;5088898;28;20039;-64
2021/01/10 10:50:07;;;;;;;7.88;3.78;;;2.50;99.90;;;;;;5093988;22;20044;-66
2021/01/10 10:52:33;;;;;;;6.10;3.25;;;2.50;99.90;;;;;;5071619;28;20058;-63
2021/01/10 10:54:58;;;;;;;8.50;3.83;;;2.50;99.90;;;;;;5059055;28;20111;-64
2021/01/10 10:57:24;;;;;;;6.53;3.45;;;2.60;99.90;;;;;;5073498;28;20044;-64
2021/01/10 10:59:50;;;;;;;6.50;3.33;;;2.60;99.90;;;;;;5056925;28;20070;-63
2021/01/10 11:02:15;;;;;;;7.32;3.30;;;2.60;99.90;;;;;;5082190;28;20036;-64
2021/01/10 11:04:44;;;;;;;6.95;3.75;;;2.60;99.90;;;;;;5080298;28;20040;-64
2021/01/10 11:07:10;;;;;;;7.57;4.28;;;2.60;99.90;;;;;;5078530;28;20657;-64
2021/01/10 11:09:36;;;;;;;7.65;4.35;;;2.50;99.90;;;;;;5069840;28;20036;-64
2021/01/10 11:12:02;;;;;;;7.63;4.15;;;2.60;99.90;;;;;;5075950;28;20028;-64
2021/01/10 11:14:28;;;;;;;6.10;3.78;;;2.60;99.90;;;;;;5082923;28;20043;-64
2021/01/10 11:16:54;;;;;;;7.43;3.70;;;2.60;99.90;;;;;;5065843;28;20140;-64
2021/01/10 11:19:21;;;;;;;5.55;3.20;;;2.70;99.90;;;;;;5070493;28;20223;-64
2021/01/10 11:21:48;;;;;;;17.42;9.88;;;2.60;99.90;;;;;;5075158;28;20779;-64
2021/01/10 11:24:15;;;;;;;11.85;7.07;;;2.70;99.90;;;;;;5075103;28;20566;-64
2021/01/10 11:26:42;;;;;;;6.25;3.03;;;2.90;99.90;;;;;;5082188;28;20086;-63
2021/01/10 11:29:08;;;;;;;6.30;3.15;;;2.90;99.90;;;;;;5081823;28;20122;-63
2021/01/10 11:31:35;;;;;;;6.22;3.00;;;3.20;99.90;;;;;;5073237;28;20098;-64
2021/01/10 11:34:06;;;;;;;7.85;3.90;;;3.40;99.90;;;;;;5082269;28;20052;-62
2021/01/10 11:36:32;;;;;;;6.60;2.90;;;3.40;99.90;;;;;;5052040;28;20068;-64
2021/01/10 11:38:57;;;;;;;11.27;6.72;;;3.50;99.90;;;;;;5071487;28;20094;-65
2021/01/10 11:41:24;;;;;;;12.98;5.90;;;3.40;99.90;;;;;;5082598;28;20028;-63
2021/01/10 11:43:50;;;;;;;6.25;3.05;;;3.30;99.90;;;;;;5077694;28;20511;-63
2021/01/10 11:46:17;;;;;;;5.20;3.03;;;3.30;99.90;;;;;;5083602;22;20094;-81
2021/01/10 11:48:43;;;;;;;5.75;2.90;;;3.10;99.90;;;;;;5059390;28;20111;-80
2021/01/10 11:51:11;;;;;;;5.97;3.17;;;2.90;99.90;;;;;;5043995;28;20066;-81
2021/01/10 11:53:37;;;;;;;6.03;3.25;;;3.00;99.90;;;;;;5042899;28;20223;-81
2021/01/10 11:56:03;;;;;;;5.22;2.78;;;3.00;99.90;;;;;;5027466;28;20033;-81
2021/01/10 11:58:29;;;;;;;4.90;2.55;;;3.00;99.90;;;;;;5043083;28;20449;-81
2021/01/10 12:00:56;;;;;;;3.30;1.73;;;3.10;99.90;;;;;;5039662;28;20056;-81
2021/01/10 12:03:23;;;;;;;4.95;2.20;;;3.00;99.90;;;;;;5044996;28;20377;-81
2021/01/10 12:05:49;;;;;;;20.30;11.82;;;3.00;99.90;;;;;;5055767;28;20040;-80
2021/01/10 12:08:16;;;;;;;7.57;3.88;;;2.80;99.90;;;;;;5046340;28;20071;-81
2021/01/10 12:10:42;;;;;;;4.40;2.10;;;2.80;99.90;;;;;;5036721;28;20220;-80
2021/01/10 12:13:08;;;;;;;3.00;1.67;;;2.80;99.90;;;;;;5058895;28;20446;-82
2021/01/10 12:15:35;;;;;;;3.35;1.67;;;2.80;99.90;;;;;;5042217;28;20409;-81
2021/01/10 12:18:05;;;;;;;3.05;1.77;;;2.60;99.90;;;;;;5041811;28;20035;-79
2021/01/10 12:20:32;;;;;;;3.00;1.55;;;2.60;99.90;;;;;;5034645;28;20044;-80
2021/01/10 12:22:57;;;;;;;2.40;1.45;;;2.40;99.90;;;;;;5031180;28;20695;-81
2021/01/10 12:25:24;;;;;;;3.15;1.13;;;2.40;99.90;;;;;;5030473;28;20045;-80
2021/01/10 12:27:50;;;;;;;1.98;1.10;;;2.20;99.90;;;;;;5047343;28;20440;-80
2021/01/10 12:30:16;;;;;;;1.90;0.95;;;2.10;99.90;;;;;;5029681;28;20099;-81
2021/01/10 12:32:42;;;;;;;2.42;1.20;;;2.10;99.90;;;;;;5037902;28;20032;-81
2021/01/10 12:35:10;;;;;;;2.95;1.10;;;2.00;99.90;;;;;;5038393;28;20095;-80
2021/01/10 12:37:36;;;;;;;5.07;3.08;;;2.00;99.90;;;;;;5037468;28;20082;-79
2021/01/10 12:40:07;;;;;;;8.68;4.53;;;2.10;99.90;;;;;;5029268;28;20148;-81
2021/01/10 12:42:33;;;;;;;7.57;4.47;;;2.10;99.90;;;;;;5032133;28;20098;-80
2021/01/10 12:45:00;;;;;;;8.32;4.78;;;2.20;99.90;;;;;;5041973;28;20060;-80
2021/01/10 12:47:25;;;;;;;6.35;3.80;;;2.20;99.90;;;;;;5048685;28;20041;-80
2021/01/10 12:49:51;;;;;;;8.27;4.10;;;2.20;99.90;;;;;;5038899;28;20048;-81
2021/01/10 12:52:17;;;;;;;10.43;4.65;;;2.20;99.90;;;;;;5033003;28;20029;-80
2021/01/10 12:54:42;;;;;;;14.73;7.00;;;2.10;99.90;;;;;;5036615;28;20106;-80
2021/01/10 12:57:08;;;;;;;23.85;12.52;;;2.00;99.90;;;;;;5037400;28;20748;-80
2021/01/10 12:59:34;;;;;;;14.77;7.05;;;2.10;99.90;;;;;;5039185;28;20064;-81
2021/01/10 13:01:59;;;;;;;10.60;5.20;;;2.10;99.90;;;;;;5030238;28;20108;-80
2021/01/10 13:04:25;;;;;;;8.98;4.40;;;2.00;99.90;;;;;;5044086;28;20044;-80